createdAt,value
2023-05-18T00:02:48.681Z,12.14
2023-05-18T00:07:53.392Z,12.11
2023-05-18T00:12:56.505Z,12.04
2023-05-18T00:17:59.587Z,11.97
2023-05-18T00:23:02.633Z,11.97
2023-05-18T00:28:05.796Z,12.01
2023-05-18T00:33:08.889Z,11.98
2023-05-18T00:38:21.190Z,11.93
2023-05-18T00:43:24.457Z,11.90
2023-05-18T00:48:27.508Z,11.85
2023-05-18T00:53:30.977Z,11.85
2023-05-18T00:58:34.529Z,11.91
2023-05-18T01:03:39.144Z,11.97
2023-05-18T01:08:43.416Z,11.97
2023-05-18T01:14:10.772Z,11.96
2023-05-18T01:19:50.399Z,11.93
2023-05-18T01:24:59.809Z,11.83
2023-05-18T01:30:04.546Z,11.82
2023-05-18T01:35:08.028Z,11.88
2023-05-18T01:40:11.525Z,12.00
2023-05-18T01:45:21.867Z,12.01
2023-05-18T01:50:41.451Z,11.97
2023-05-18T01:55:48.854Z,11.88
2023-05-18T02:00:52.296Z,11.85
2023-05-18T02:05:56.434Z,11.90
2023-05-18T02:11:00.145Z,11.92
2023-05-18T02:16:04.503Z,11.87
2023-05-18T02:21:09.632Z,11.77
2023-05-18T02:26:12.717Z,11.72
2023-05-18T02:31:16.591Z,11.69
2023-05-18T02:36:22.701Z,11.67
2023-05-18T02:41:26.594Z,11.69
2023-05-18T02:46:30.123Z,11.74
2023-05-18T02:51:33.399Z,11.74
2023-05-18T02:56:38.635Z,11.79
2023-05-18T03:01:52.547Z,11.80
2023-05-18T03:06:57.476Z,11.74
2023-05-18T03:12:01.447Z,11.78
2023-05-18T03:17:06.286Z,11.75
2023-05-18T03:22:10.085Z,11.68
2023-05-18T03:27:16.641Z,11.56
2023-05-18T03:32:20.751Z,11.49
2023-05-18T03:37:23.896Z,11.54
2023-05-18T03:42:27.110Z,11.52
2023-05-18T03:47:30.677Z,11.46
2023-05-18T03:52:34.618Z,11.39
2023-05-18T03:57:37.982Z,11.28
2023-05-18T04:02:42.452Z,11.23
2023-05-18T04:07:46.874Z,11.25
2023-05-18T04:12:50.075Z,11.24
2023-05-18T04:17:54.070Z,11.16
2023-05-18T04:23:00.565Z,10.99
2023-05-18T04:28:03.842Z,10.92
2023-05-18T04:33:07.185Z,10.88
2023-05-18T04:38:20.956Z,10.90
2023-05-18T04:43:24.595Z,10.94
2023-05-18T04:48:29.441Z,10.95
2023-05-18T04:53:34.896Z,10.96
2023-05-18T04:58:38.347Z,10.96
2023-05-18T05:03:45.162Z,10.97
2023-05-18T05:08:48.628Z,10.99
2023-05-18T05:13:51.887Z,11.01
2023-05-18T05:18:54.963Z,11.07
2023-05-18T05:23:58.402Z,11.10
2023-05-18T05:29:02.733Z,11.17
2023-05-18T05:34:06.006Z,11.12
2023-05-18T05:39:09.712Z,11.06
2023-05-18T05:44:12.979Z,10.90
2023-05-18T05:49:16.433Z,10.79
2023-05-18T05:54:19.938Z,10.74
2023-05-18T05:59:23.212Z,10.69
2023-05-18T06:04:27.486Z,10.64
2023-05-18T06:09:31.350Z,10.67
2023-05-18T06:14:34.598Z,10.75
2023-05-18T06:19:40.901Z,10.81
2023-05-18T06:24:44.886Z,10.87
2023-05-18T06:30:23.129Z,10.92
2023-05-18T06:35:49.094Z,10.94
2023-05-18T06:40:52.500Z,10.97
2023-05-18T06:45:56.124Z,10.99
2023-05-18T06:51:11.866Z,11.02
2023-05-18T06:56:14.961Z,11.02
2023-05-18T07:01:19.843Z,11.01
2023-05-18T07:06:23.208Z,11.03
2023-05-18T07:11:28.864Z,11.08
2023-05-18T07:16:32.840Z,11.12
2023-05-18T07:21:36.021Z,11.17
2023-05-18T07:26:39.588Z,11.18
2023-05-18T07:31:42.887Z,11.19
2023-05-18T07:36:46.255Z,11.15
2023-05-18T07:41:50.214Z,11.13
2023-05-18T07:47:02.487Z,11.11
2023-05-18T07:52:08.371Z,11.07
2023-05-18T07:57:11.430Z,11.03
2023-05-18T08:02:16.655Z,11.04
2023-05-18T08:07:19.914Z,11.11
2023-05-18T08:12:23.389Z,11.18
2023-05-18T08:17:26.693Z,11.25
2023-05-18T08:22:29.865Z,11.21
2023-05-18T08:27:33.039Z,11.20
2023-05-18T08:32:37.523Z,11.21
2023-05-18T08:37:40.786Z,11.30
2023-05-18T08:43:07.232Z,11.32
2023-05-18T08:48:11.608Z,11.29
2023-05-18T08:53:16.953Z,11.33
2023-05-18T08:58:22.838Z,11.45
2023-05-18T09:03:26.533Z,11.45
2023-05-18T09:08:30.282Z,11.42
2023-05-18T09:13:33.285Z,11.46
2023-05-18T09:18:36.896Z,11.45
2023-05-18T09:23:41.566Z,11.43
2023-05-18T09:28:45.480Z,11.39
2023-05-18T09:33:48.871Z,11.39
2023-05-18T09:38:53.200Z,11.37
2023-05-18T09:43:56.315Z,11.41
2023-05-18T09:48:59.698Z,11.52
2023-05-18T09:54:06.279Z,11.60
2023-05-18T09:59:16.440Z,11.68
2023-05-18T10:04:20.109Z,11.66
2023-05-18T10:09:23.172Z,11.69
2023-05-18T10:14:31.433Z,11.69
2023-05-18T10:19:36.078Z,11.68
2023-05-18T10:24:41.662Z,11.74
2023-05-18T10:29:45.254Z,11.76
2023-05-18T10:34:49.115Z,11.71
2023-05-18T10:39:54.938Z,11.69
2023-05-18T10:44:58.515Z,11.69
2023-05-18T10:50:04.545Z,11.69
2023-05-18T10:55:08.868Z,11.63
2023-05-18T11:00:16.733Z,11.57
2023-05-18T11:05:26.894Z,11.54
2023-05-18T11:10:41.437Z,11.60
2023-05-18T11:15:53.059Z,11.67
2023-05-18T11:20:56.355Z,11.66
2023-05-18T11:26:05.699Z,11.65
2023-05-18T11:31:16.475Z,11.64
2023-05-18T11:36:23.428Z,11.67
2023-05-18T11:41:39.301Z,11.60
2023-05-18T11:47:12.551Z,11.51
2023-05-18T11:52:22.976Z,11.53
2023-05-18T11:57:34.898Z,11.62
2023-05-18T12:02:38.936Z,11.65
2023-05-18T12:07:43.020Z,11.62
2023-05-18T12:12:49.514Z,11.56
2023-05-18T12:17:52.676Z,11.54
2023-05-18T12:22:56.401Z,11.53
2023-05-18T12:28:01.234Z,11.50
2023-05-18T12:33:04.840Z,11.50
2023-05-18T12:38:08.069Z,11.52
2023-05-18T12:48:17.872Z,11.63
2023-05-18T13:49:14.419Z,12.02
2023-05-18T13:54:23.078Z,12.09
2023-05-18T13:59:27.789Z,12.12
2023-05-18T14:04:30.924Z,12.15
2023-05-18T14:09:34.199Z,12.16
2023-05-18T14:14:37.814Z,12.22
2023-05-18T14:19:44.539Z,12.28
2023-05-18T14:24:50.369Z,12.29
2023-05-18T14:29:53.439Z,12.21
2023-05-18T14:34:58.181Z,12.17
2023-05-18T14:40:02.044Z,12.07
2023-05-18T14:45:05.550Z,11.96
2023-05-18T14:50:08.950Z,11.86
2023-05-18T14:55:12.232Z,11.87
2023-05-18T15:00:15.634Z,11.90
2023-05-18T15:05:18.686Z,11.92
2023-05-18T15:10:23.415Z,11.91
2023-05-18T15:15:26.848Z,11.88
2023-05-18T15:20:30.535Z,11.89
2023-05-18T15:25:34.056Z,11.91
2023-05-18T15:30:37.457Z,12.02
2023-05-18T15:35:40.664Z,12.06
2023-05-18T15:40:47.983Z,12.02
2023-05-18T15:45:51.088Z,11.96
2023-05-18T15:50:54.223Z,11.89
2023-05-18T15:55:59.374Z,11.88
2023-05-18T16:01:03.149Z,11.92
2023-05-18T16:06:06.407Z,11.95
2023-05-18T16:11:09.438Z,11.97
2023-05-18T16:16:14.362Z,12.00
2023-05-18T16:21:18.412Z,12.00
2023-05-18T16:26:22.220Z,11.99
2023-05-18T16:31:25.390Z,11.99
2023-05-18T16:36:28.627Z,11.95
2023-05-18T16:41:31.718Z,11.96
2023-05-18T16:46:34.912Z,11.93
2023-05-18T16:51:38.492Z,11.96
2023-05-18T16:56:41.546Z,11.98
2023-05-18T17:01:44.622Z,11.96
2023-05-18T17:06:47.765Z,11.96
2023-05-18T17:11:50.886Z,11.89
2023-05-18T17:16:54.382Z,11.82
2023-05-18T17:21:57.394Z,11.77
2023-05-18T17:27:00.826Z,11.72
2023-05-18T17:32:04.819Z,11.66
2023-05-18T17:37:08.284Z,11.70
2023-05-18T17:42:11.414Z,11.73
2023-05-18T17:47:14.607Z,11.70
2023-05-18T17:52:18.012Z,11.65
2023-05-18T17:57:23.106Z,11.65
2023-05-18T18:02:26.277Z,11.76
2023-05-18T18:07:29.554Z,11.67
2023-05-18T18:12:32.848Z,11.63
2023-05-18T18:17:35.936Z,11.66
2023-05-18T18:22:38.975Z,11.68
2023-05-18T18:27:42.056Z,11.63
2023-05-18T18:32:45.113Z,11.54
2023-05-18T18:37:48.376Z,11.47
2023-05-18T18:42:54.203Z,11.41
2023-05-18T18:47:57.324Z,11.46
2023-05-18T18:53:00.496Z,11.71
2023-05-18T18:58:03.903Z,11.64
2023-05-18T19:03:07.046Z,11.59
2023-05-18T19:08:10.067Z,11.53
2023-05-18T19:13:13.161Z,11.50
2023-05-18T19:18:17.664Z,11.52
2023-05-18T19:23:20.922Z,11.53
2023-05-18T19:28:24.120Z,11.51
2023-05-18T19:33:27.177Z,11.51
2023-05-18T19:38:30.294Z,11.56
2023-05-18T19:43:33.388Z,11.66
2023-05-18T19:48:36.536Z,11.61
2023-05-18T19:53:40.003Z,11.63
2023-05-18T19:58:43.649Z,11.73
2023-05-18T20:03:48.120Z,11.69
2023-05-18T20:08:53.252Z,11.67
2023-05-18T20:13:56.214Z,11.66
2023-05-18T20:18:59.745Z,11.64
2023-05-18T20:24:03.123Z,11.59
2023-05-18T20:29:06.674Z,11.55
2023-05-18T20:34:09.750Z,11.53
2023-05-18T20:39:12.790Z,11.52
2023-05-18T20:44:17.939Z,11.57
2023-05-18T20:49:27.046Z,11.59
2023-05-18T20:54:30.262Z,11.58
2023-05-18T20:59:33.312Z,11.57
2023-05-18T21:04:36.488Z,11.55
2023-05-18T21:09:39.476Z,11.52
2023-05-18T21:14:42.638Z,11.49
2023-05-18T21:19:45.808Z,11.49
2023-05-18T21:24:49.057Z,11.53
2023-05-18T21:29:52.260Z,11.58
2023-05-18T21:34:55.258Z,11.60
2023-05-18T21:39:58.534Z,11.63
2023-05-18T21:45:01.636Z,11.59
2023-05-18T21:50:05.261Z,11.52
2023-05-18T21:55:08.997Z,11.48
2023-05-18T22:00:14.115Z,11.46
2023-05-18T22:05:18.663Z,11.49
2023-05-18T22:10:21.789Z,11.50
2023-05-18T22:15:24.884Z,11.48
2023-05-18T22:20:28.421Z,11.46
2023-05-18T22:25:32.021Z,11.43
2023-05-18T22:30:35.573Z,11.41
2023-05-18T22:35:38.508Z,11.37
2023-05-18T22:40:41.473Z,11.37
2023-05-18T22:45:44.628Z,11.40
2023-05-18T22:50:48.435Z,11.46
2023-05-18T22:55:52.013Z,11.46
2023-05-18T23:00:55.081Z,11.43
2023-05-18T23:06:03.309Z,11.39
2023-05-18T23:11:06.995Z,11.38
2023-05-18T23:16:10.583Z,11.33
2023-05-18T23:21:14.837Z,11.33
2023-05-18T23:26:17.945Z,11.40
2023-05-18T23:31:25.226Z,11.46
2023-05-18T23:36:31.111Z,11.46
2023-05-18T23:41:36.090Z,11.46
2023-05-18T23:46:39.291Z,11.40
2023-05-18T23:51:43.067Z,11.33
2023-05-18T23:56:47.040Z,11.34
